sensor_id;sensor_type;location;lat;lon;timestamp;temperature;humidity
2955;DHT22;1487;51.470;6.938;2023-06-10T00:00:21;19.70;99.90
2955;DHT22;1487;51.470;6.938;2023-06-10T00:02:48;19.60;99.90
2955;DHT22;1487;51.470;6.938;2023-06-10T00:05:16;19.60;99.90
2955;DHT22;1487;51.470;6.938;2023-06-10T00:07:47;19.60;99.90
2955;DHT22;1487;51.470;6.938;2023-06-10T00:10:15;19.50;99.90
2955;DHT22;1487;51.470;6.938;2023-06-10T00:12:44;19.50;99.90
2955;DHT22;1487;51.470;6.938;2023-06-10T00:15:11;19.40;99.90
2955;DHT22;1487;51.470;6.938;2023-06-10T00:17:38;19.40;99.90
2955;DHT22;1487;51.470;6.938;2023-06-10T00:20:08;19.40;99.90
2955;DHT22;1487;51.470;6.938;2023-06-10T00:22:38;19.40;99.90
2955;DHT22;1487;51.470;6.938;2023-06-10T00:25:07;19.30;99.90
2955;DHT22;1487;51.470;6.938;2023-06-10T00:27:34;19.30;99.90
2955;DHT22;1487;51.470;6.938;2023-06-10T00:30:02;19.20;99.90
2955;DHT22;1487;51.470;6.938;2023-06-10T00:32:32;19.20;99.90
2955;DHT22;1487;51.470;6.938;2023-06-10T00:34:59;19.20;99.90
2955;DHT22;1487;51.470;6.938;2023-06-10T00:37:25;19.20;99.90
2955;DHT22;1487;51.470;6.938;2023-06-10T00:39:54;19.10;99.90
2955;DHT22;1487;51.470;6.938;2023-06-10T00:42:20;19.10;99.90
2955;DHT22;1487;51.470;6.938;2023-06-10T00:44:49;19.10;99.90
2955;DHT22;1487;51.470;6.938;2023-06-10T00:47:16;19.00;99.90
2955;DHT22;1487;51.470;6.938;2023-06-10T00:49:44;19.00;99.90
2955;DHT22;1487;51.470;6.938;2023-06-10T00:52:11;18.90;99.90
2955;DHT22;1487;51.470;6.938;2023-06-10T00:54:38;18.90;99.90
2955;DHT22;1487;51.470;6.938;2023-06-10T00:57:07;18.80;99.90
2955;DHT22;1487;51.470;6.938;2023-06-10T00:59:34;18.70;99.90
2955;DHT22;1487;51.470;6.938;2023-06-10T01:02:01;18.70;99.90
2955;DHT22;1487;51.470;6.938;2023-06-10T01:04:29;18.60;99.90
2955;DHT22;1487;51.470;6.938;2023-06-10T01:07:05;18.60;99.90
2955;DHT22;1487;51.470;6.938;2023-06-10T01:09:41;18.60;99.90
2955;DHT22;1487;51.470;6.938;2023-06-10T01:12:16;18.60;99.90
2955;DHT22;1487;51.470;6.938;2023-06-10T01:14:43;18.50;99.90
2955;DHT22;1487;51.470;6.938;2023-06-10T01:17:11;18.40;99.90
2955;DHT22;1487;51.470;6.938;2023-06-10T01:19:38;18.50;99.90
2955;DHT22;1487;51.470;6.938;2023-06-10T01:22:07;18.40;99.90
2955;DHT22;1487;51.470;6.938;2023-06-10T01:24:36;18.40;99.90
2955;DHT22;1487;51.470;6.938;2023-06-10T01:27:12;18.30;99.90
2955;DHT22;1487;51.470;6.938;2023-06-10T01:29:42;18.30;99.90
2955;DHT22;1487;51.470;6.938;2023-06-10T01:32:15;18.30;99.90
2955;DHT22;1487;51.470;6.938;2023-06-10T01:34:44;18.30;99.90
2955;DHT22;1487;51.470;6.938;2023-06-10T01:37:16;18.30;99.90
2955;DHT22;1487;51.470;6.938;2023-06-10T01:39:45;18.30;99.90
2955;DHT22;1487;51.470;6.938;2023-06-10T01:42:13;18.30;99.90
2955;DHT22;1487;51.470;6.938;2023-06-10T01:44:40;18.30;99.90
2955;DHT22;1487;51.470;6.938;2023-06-10T01:47:07;18.30;99.90
2955;DHT22;1487;51.470;6.938;2023-06-10T01:49:34;18.20;99.90
2955;DHT22;1487;51.470;6.938;2023-06-10T01:52:01;18.20;99.90
2955;DHT22;1487;51.470;6.938;2023-06-10T01:54:29;18.20;99.90
2955;DHT22;1487;51.470;6.938;2023-06-10T01:56:56;18.20;99.90
2955;DHT22;1487;51.470;6.938;2023-06-10T01:59:23;18.20;99.90
2955;DHT22;1487;51.470;6.938;2023-06-10T02:01:50;18.20;99.90
2955;DHT22;1487;51.470;6.938;2023-06-10T02:04:17;18.20;99.90
2955;DHT22;1487;51.470;6.938;2023-06-10T02:06:44;18.10;99.90
2955;DHT22;1487;51.470;6.938;2023-06-10T02:09:11;18.10;99.90
2955;DHT22;1487;51.470;6.938;2023-06-10T02:11:39;18.10;99.90
2955;DHT22;1487;51.470;6.938;2023-06-10T02:14:06;18.10;99.90
2955;DHT22;1487;51.470;6.938;2023-06-10T02:16:33;18.10;99.90
2955;DHT22;1487;51.470;6.938;2023-06-10T02:19:00;18.20;99.90
2955;DHT22;1487;51.470;6.938;2023-06-10T02:21:28;18.10;99.90
2955;DHT22;1487;51.470;6.938;2023-06-10T02:23:55;18.10;99.90
2955;DHT22;1487;51.470;6.938;2023-06-10T02:26:22;18.10;99.90
2955;DHT22;1487;51.470;6.938;2023-06-10T02:28:52;18.00;99.90
2955;DHT22;1487;51.470;6.938;2023-06-10T02:31:20;18.00;99.90
2955;DHT22;1487;51.470;6.938;2023-06-10T02:33:49;18.00;99.90
2955;DHT22;1487;51.470;6.938;2023-06-10T02:36:16;18.00;99.90
2955;DHT22;1487;51.470;6.938;2023-06-10T02:38:43;18.00;99.90
2955;DHT22;1487;51.470;6.938;2023-06-10T02:41:10;17.90;99.90
2955;DHT22;1487;51.470;6.938;2023-06-10T02:43:37;17.90;99.90
2955;DHT22;1487;51.470;6.938;2023-06-10T02:46:06;17.90;99.90
2955;DHT22;1487;51.470;6.938;2023-06-10T02:48:40;17.90;99.90
2955;DHT22;1487;51.470;6.938;2023-06-10T02:51:07;17.80;99.90
2955;DHT22;1487;51.470;6.938;2023-06-10T02:53:34;17.80;99.90
2955;DHT22;1487;51.470;6.938;2023-06-10T02:56:01;17.80;99.90
2955;DHT22;1487;51.470;6.938;2023-06-10T02:58:27;17.80;99.90
2955;DHT22;1487;51.470;6.938;2023-06-10T03:00:54;17.70;99.90
2955;DHT22;1487;51.470;6.938;2023-06-10T03:03:23;17.70;99.90
2955;DHT22;1487;51.470;6.938;2023-06-10T03:05:51;17.70;99.90
2955;DHT22;1487;51.470;6.938;2023-06-10T03:08:17;17.70;99.90
2955;DHT22;1487;51.470;6.938;2023-06-10T03:10:44;17.60;99.90
2955;DHT22;1487;51.470;6.938;2023-06-10T03:13:11;17.60;99.90
2955;DHT22;1487;51.470;6.938;2023-06-10T03:15:40;17.60;99.90
2955;DHT22;1487;51.470;6.938;2023-06-10T03:18:07;17.60;99.90
2955;DHT22;1487;51.470;6.938;2023-06-10T03:20:35;17.60;99.90
2955;DHT22;1487;51.470;6.938;2023-06-10T03:23:03;17.60;99.90
2955;DHT22;1487;51.470;6.938;2023-06-10T03:25:30;17.60;99.90
2955;DHT22;1487;51.470;6.938;2023-06-10T03:27:57;17.60;99.90
2955;DHT22;1487;51.470;6.938;2023-06-10T03:30:24;17.60;99.90
2955;DHT22;1487;51.470;6.938;2023-06-10T03:32:51;17.60;99.90
2955;DHT22;1487;51.470;6.938;2023-06-10T03:35:18;17.60;99.90
2955;DHT22;1487;51.470;6.938;2023-06-10T03:37:46;17.60;99.90
2955;DHT22;1487;51.470;6.938;2023-06-10T03:40:13;17.60;99.90
2955;DHT22;1487;51.470;6.938;2023-06-10T03:42:39;17.50;99.90
2955;DHT22;1487;51.470;6.938;2023-06-10T03:45:07;17.50;99.90
2955;DHT22;1487;51.470;6.938;2023-06-10T03:47:34;17.50;99.90
2955;DHT22;1487;51.470;6.938;2023-06-10T03:50:02;17.50;99.90
2955;DHT22;1487;51.470;6.938;2023-06-10T03:52:30;17.50;99.90
2955;DHT22;1487;51.470;6.938;2023-06-10T03:54:58;17.60;99.90
2955;DHT22;1487;51.470;6.938;2023-06-10T03:57:25;17.50;99.90
2955;DHT22;1487;51.470;6.938;2023-06-10T03:59:55;17.50;99.90
2955;DHT22;1487;51.470;6.938;2023-06-10T04:02:21;17.50;99.90
2955;DHT22;1487;51.470;6.938;2023-06-10T04:04:48;17.60;99.90
2955;DHT22;1487;51.470;6.938;2023-06-10T04:07:16;17.60;99.90
2955;DHT22;1487;51.470;6.938;2023-06-10T04:09:44;17.60;99.90
2955;DHT22;1487;51.470;6.938;2023-06-10T04:12:13;17.60;99.90
2955;DHT22;1487;51.470;6.938;2023-06-10T04:14:40;17.60;99.90
2955;DHT22;1487;51.470;6.938;2023-06-10T04:17:07;17.50;99.90
2955;DHT22;1487;51.470;6.938;2023-06-10T04:19:33;17.60;99.90
2955;DHT22;1487;51.470;6.938;2023-06-10T04:22:00;17.70;99.90
2955;DHT22;1487;51.470;6.938;2023-06-10T04:24:27;17.70;99.90
2955;DHT22;1487;51.470;6.938;2023-06-10T04:26:54;17.70;99.90
2955;DHT22;1487;51.470;6.938;2023-06-10T04:29:22;17.70;99.90
2955;DHT22;1487;51.470;6.938;2023-06-10T04:31:49;17.70;99.90
2955;DHT22;1487;51.470;6.938;2023-06-10T04:34:16;17.70;99.90
2955;DHT22;1487;51.470;6.938;2023-06-10T04:36:43;17.80;99.90
2955;DHT22;1487;51.470;6.938;2023-06-10T04:39:10;17.80;99.90
2955;DHT22;1487;51.470;6.938;2023-06-10T04:41:37;17.80;99.90
2955;DHT22;1487;51.470;6.938;2023-06-10T04:44:04;17.80;99.90
2955;DHT22;1487;51.470;6.938;2023-06-10T04:46:32;17.80;99.90
2955;DHT22;1487;51.470;6.938;2023-06-10T04:48:58;17.80;99.90
2955;DHT22;1487;51.470;6.938;2023-06-10T04:51:25;17.90;99.90
2955;DHT22;1487;51.470;6.938;2023-06-10T04:53:52;17.90;99.90
2955;DHT22;1487;51.470;6.938;2023-06-10T04:56:19;17.90;99.90
2955;DHT22;1487;51.470;6.938;2023-06-10T04:58:47;17.90;99.90
2955;DHT22;1487;51.470;6.938;2023-06-10T05:01:13;18.00;99.90
2955;DHT22;1487;51.470;6.938;2023-06-10T05:03:42;18.10;99.90
2955;DHT22;1487;51.470;6.938;2023-06-10T05:06:08;18.00;99.90
2955;DHT22;1487;51.470;6.938;2023-06-10T05:08:35;18.10;99.90
2955;DHT22;1487;51.470;6.938;2023-06-10T05:11:02;18.10;99.90
2955;DHT22;1487;51.470;6.938;2023-06-10T05:13:29;18.20;99.90
2955;DHT22;1487;51.470;6.938;2023-06-10T05:15:56;18.30;99.90
2955;DHT22;1487;51.470;6.938;2023-06-10T05:18:22;18.30;99.90
2955;DHT22;1487;51.470;6.938;2023-06-10T05:20:51;18.30;99.90
2955;DHT22;1487;51.470;6.938;2023-06-10T05:23:19;18.30;99.90
2955;DHT22;1487;51.470;6.938;2023-06-10T05:25:46;18.40;99.90
2955;DHT22;1487;51.470;6.938;2023-06-10T05:28:13;18.40;99.90
2955;DHT22;1487;51.470;6.938;2023-06-10T05:30:40;18.50;99.90
2955;DHT22;1487;51.470;6.938;2023-06-10T05:33:07;18.50;99.90
2955;DHT22;1487;51.470;6.938;2023-06-10T05:35:33;18.60;99.90
2955;DHT22;1487;51.470;6.938;2023-06-10T05:38:02;18.70;99.90
2955;DHT22;1487;51.470;6.938;2023-06-10T05:40:29;18.80;99.90
2955;DHT22;1487;51.470;6.938;2023-06-10T05:42:56;18.90;99.90
2955;DHT22;1487;51.470;6.938;2023-06-10T05:45:23;19.10;99.90
2955;DHT22;1487;51.470;6.938;2023-06-10T05:47:50;19.20;99.90
2955;DHT22;1487;51.470;6.938;2023-06-10T05:50:17;19.20;99.90
2955;DHT22;1487;51.470;6.938;2023-06-10T05:52:44;19.30;99.90
2955;DHT22;1487;51.470;6.938;2023-06-10T05:55:12;19.40;99.90
2955;DHT22;1487;51.470;6.938;2023-06-10T05:57:41;19.50;99.90
2955;DHT22;1487;51.470;6.938;2023-06-10T06:00:09;19.70;99.90
2955;DHT22;1487;51.470;6.938;2023-06-10T06:02:36;19.80;99.90
2955;DHT22;1487;51.470;6.938;2023-06-10T06:05:03;20.00;99.90
2955;DHT22;1487;51.470;6.938;2023-06-10T06:07:30;20.20;99.90
2955;DHT22;1487;51.470;6.938;2023-06-10T06:09:57;20.30;99.90
2955;DHT22;1487;51.470;6.938;2023-06-10T06:12:25;20.40;99.90
2955;DHT22;1487;51.470;6.938;2023-06-10T06:14:52;20.50;99.90
2955;DHT22;1487;51.470;6.938;2023-06-10T06:17:18;20.50;99.90
2955;DHT22;1487;51.470;6.938;2023-06-10T06:19:45;20.50;99.90
2955;DHT22;1487;51.470;6.938;2023-06-10T06:22:13;20.60;99.90
2955;DHT22;1487;51.470;6.938;2023-06-10T06:24:40;20.80;99.90
2955;DHT22;1487;51.470;6.938;2023-06-10T06:27:07;21.10;99.90
2955;DHT22;1487;51.470;6.938;2023-06-10T06:29:37;21.20;99.90
2955;DHT22;1487;51.470;6.938;2023-06-10T06:32:05;21.20;99.90
2955;DHT22;1487;51.470;6.938;2023-06-10T06:34:32;21.20;99.90
2955;DHT22;1487;51.470;6.938;2023-06-10T06:36:59;21.50;99.90
2955;DHT22;1487;51.470;6.938;2023-06-10T06:39:25;21.90;99.90
2955;DHT22;1487;51.470;6.938;2023-06-10T06:41:53;22.30;99.90
2955;DHT22;1487;51.470;6.938;2023-06-10T06:44:20;23.00;99.90
2955;DHT22;1487;51.470;6.938;2023-06-10T06:46:48;23.60;99.90
2955;DHT22;1487;51.470;6.938;2023-06-10T06:49:15;24.20;99.90
2955;DHT22;1487;51.470;6.938;2023-06-10T06:51:42;25.00;99.90
2955;DHT22;1487;51.470;6.938;2023-06-10T06:54:08;25.30;96.60
2955;DHT22;1487;51.470;6.938;2023-06-10T06:56:36;25.20;95.10
2955;DHT22;1487;51.470;6.938;2023-06-10T06:59:05;25.50;99.60
2955;DHT22;1487;51.470;6.938;2023-06-10T07:01:33;26.20;94.70
2955;DHT22;1487;51.470;6.938;2023-06-10T07:04:01;26.40;90.20
2955;DHT22;1487;51.470;6.938;2023-06-10T07:06:28;26.10;89.50
2955;DHT22;1487;51.470;6.938;2023-06-10T07:08:55;26.00;88.80
2955;DHT22;1487;51.470;6.938;2023-06-10T07:11:21;26.20;91.20
2955;DHT22;1487;51.470;6.938;2023-06-10T07:13:48;26.60;89.50
2955;DHT22;1487;51.470;6.938;2023-06-10T07:16:15;27.30;90.40
2955;DHT22;1487;51.470;6.938;2023-06-10T07:18:42;27.70;86.20
2955;DHT22;1487;51.470;6.938;2023-06-10T07:21:10;28.10;81.20
2955;DHT22;1487;51.470;6.938;2023-06-10T07:23:37;28.50;82.70
2955;DHT22;1487;51.470;6.938;2023-06-10T07:26:04;29.30;80.50
2955;DHT22;1487;51.470;6.938;2023-06-10T07:28:30;29.50;73.40
2955;DHT22;1487;51.470;6.938;2023-06-10T07:30:57;29.40;73.00
2955;DHT22;1487;51.470;6.938;2023-06-10T07:33:24;28.80;70.10
2955;DHT22;1487;51.470;6.938;2023-06-10T07:35:51;28.60;70.70
2955;DHT22;1487;51.470;6.938;2023-06-10T07:38:19;28.50;72.70
2955;DHT22;1487;51.470;6.938;2023-06-10T07:40:46;28.30;71.60
2955;DHT22;1487;51.470;6.938;2023-06-10T07:43:13;28.70;73.70
2955;DHT22;1487;51.470;6.938;2023-06-10T07:45:40;29.30;72.30
2955;DHT22;1487;51.470;6.938;2023-06-10T07:48:07;30.30;71.90
2955;DHT22;1487;51.470;6.938;2023-06-10T07:50:34;30.70;69.40
2955;DHT22;1487;51.470;6.938;2023-06-10T07:53:01;31.10;67.10
2955;DHT22;1487;51.470;6.938;2023-06-10T07:55:29;30.50;65.10
2955;DHT22;1487;51.470;6.938;2023-06-10T07:57:56;30.10;66.00
2955;DHT22;1487;51.470;6.938;2023-06-10T08:00:23;30.70;70.00
2955;DHT22;1487;51.470;6.938;2023-06-10T08:02:50;31.00;63.80
2955;DHT22;1487;51.470;6.938;2023-06-10T08:05:17;31.40;68.30
2955;DHT22;1487;51.470;6.938;2023-06-10T08:07:44;31.30;61.60
2955;DHT22;1487;51.470;6.938;2023-06-10T08:10:11;31.40;63.80
2955;DHT22;1487;51.470;6.938;2023-06-10T08:12:39;31.40;61.80
2955;DHT22;1487;51.470;6.938;2023-06-10T08:15:07;31.60;62.20
2955;DHT22;1487;51.470;6.938;2023-06-10T08:17:34;32.30;65.10
2955;DHT22;1487;51.470;6.938;2023-06-10T08:20:01;33.30;64.40
2955;DHT22;1487;51.470;6.938;2023-06-10T08:22:28;33.60;61.10
2955;DHT22;1487;51.470;6.938;2023-06-10T08:24:55;34.20;60.10
2955;DHT22;1487;51.470;6.938;2023-06-10T08:27:25;34.70;59.70
2955;DHT22;1487;51.470;6.938;2023-06-10T08:29:53;35.10;57.80
2955;DHT22;1487;51.470;6.938;2023-06-10T08:32:20;34.90;56.10
2955;DHT22;1487;51.470;6.938;2023-06-10T08:34:47;35.20;56.90
2955;DHT22;1487;51.470;6.938;2023-06-10T08:37:14;34.90;54.90
2955;DHT22;1487;51.470;6.938;2023-06-10T08:39:40;34.60;57.50
2955;DHT22;1487;51.470;6.938;2023-06-10T08:42:14;34.70;55.80
2955;DHT22;1487;51.470;6.938;2023-06-10T08:44:46;34.70;57.70
2955;DHT22;1487;51.470;6.938;2023-06-10T08:47:16;35.20;56.70
2955;DHT22;1487;51.470;6.938;2023-06-10T08:49:45;35.00;53.30
2955;DHT22;1487;51.470;6.938;2023-06-10T08:52:14;34.00;54.90
2955;DHT22;1487;51.470;6.938;2023-06-10T08:54:43;34.20;55.60
2955;DHT22;1487;51.470;6.938;2023-06-10T08:57:13;33.90;56.00
2955;DHT22;1487;51.470;6.938;2023-06-10T08:59:41;34.00;54.80
2955;DHT22;1487;51.470;6.938;2023-06-10T09:02:08;34.10;55.50
2955;DHT22;1487;51.470;6.938;2023-06-10T09:04:37;34.60;58.60
2955;DHT22;1487;51.470;6.938;2023-06-10T09:07:05;35.20;54.70
2955;DHT22;1487;51.470;6.938;2023-06-10T09:09:34;35.90;54.80
2955;DHT22;1487;51.470;6.938;2023-06-10T09:12:02;35.70;53.50
2955;DHT22;1487;51.470;6.938;2023-06-10T09:14:28;35.30;52.30
2955;DHT22;1487;51.470;6.938;2023-06-10T09:16:55;35.00;53.50
2955;DHT22;1487;51.470;6.938;2023-06-10T09:19:23;34.80;53.10
2955;DHT22;1487;51.470;6.938;2023-06-10T09:21:53;34.70;53.40
2955;DHT22;1487;51.470;6.938;2023-06-10T09:24:21;34.80;53.50
2955;DHT22;1487;51.470;6.938;2023-06-10T09:26:52;35.00;54.10
2955;DHT22;1487;51.470;6.938;2023-06-10T09:29:28;35.10;53.70
2955;DHT22;1487;51.470;6.938;2023-06-10T09:31:55;36.10;56.20
2955;DHT22;1487;51.470;6.938;2023-06-10T09:34:25;37.10;53.60
2955;DHT22;1487;51.470;6.938;2023-06-10T09:36:53;37.30;52.00
2955;DHT22;1487;51.470;6.938;2023-06-10T09:39:21;37.20;53.10
2955;DHT22;1487;51.470;6.938;2023-06-10T09:41:48;37.70;54.50
2955;DHT22;1487;51.470;6.938;2023-06-10T09:44:16;37.90;50.30
2955;DHT22;1487;51.470;6.938;2023-06-10T09:46:45;37.50;50.30
2955;DHT22;1487;51.470;6.938;2023-06-10T09:49:12;37.30;51.70
2955;DHT22;1487;51.470;6.938;2023-06-10T09:51:49;37.30;51.80
2955;DHT22;1487;51.470;6.938;2023-06-10T09:54:18;38.10;52.00
2955;DHT22;1487;51.470;6.938;2023-06-10T09:56:47;38.40;48.40
2955;DHT22;1487;51.470;6.938;2023-06-10T09:59:14;38.00;48.50
2955;DHT22;1487;51.470;6.938;2023-06-10T10:01:41;37.70;50.80
2955;DHT22;1487;51.470;6.938;2023-06-10T10:04:08;38.10;51.70
2955;DHT22;1487;51.470;6.938;2023-06-10T10:06:36;38.40;49.80
2955;DHT22;1487;51.470;6.938;2023-06-10T10:09:03;38.90;50.30
2955;DHT22;1487;51.470;6.938;2023-06-10T10:11:32;38.70;47.20
2955;DHT22;1487;51.470;6.938;2023-06-10T10:14:04;38.00;49.40
2955;DHT22;1487;51.470;6.938;2023-06-10T10:16:36;38.60;51.00
2955;DHT22;1487;51.470;6.938;2023-06-10T10:19:07;38.90;48.60
2955;DHT22;1487;51.470;6.938;2023-06-10T10:21:40;38.80;47.40
2955;DHT22;1487;51.470;6.938;2023-06-10T10:24:13;38.30;49.20
2955;DHT22;1487;51.470;6.938;2023-06-10T10:26:45;38.80;50.80
2955;DHT22;1487;51.470;6.938;2023-06-10T10:29:19;39.00;47.20
2955;DHT22;1487;51.470;6.938;2023-06-10T10:31:50;39.20;48.40
2955;DHT22;1487;51.470;6.938;2023-06-10T10:34:21;39.30;49.70
2955;DHT22;1487;51.470;6.938;2023-06-10T10:36:50;39.90;49.40
2955;DHT22;1487;51.470;6.938;2023-06-10T10:39:18;39.80;47.10
2955;DHT22;1487;51.470;6.938;2023-06-10T10:41:47;40.10;48.00
2955;DHT22;1487;51.470;6.938;2023-06-10T10:44:14;40.20;46.80
2955;DHT22;1487;51.470;6.938;2023-06-10T10:46:42;40.40;47.00
2955;DHT22;1487;51.470;6.938;2023-06-10T10:49:11;40.10;46.00
2955;DHT22;1487;51.470;6.938;2023-06-10T10:51:54;39.90;44.80
2955;DHT22;1487;51.470;6.938;2023-06-10T10:54:28;39.80;46.90
2955;DHT22;1487;51.470;6.938;2023-06-10T10:57:12;39.80;46.80
2955;DHT22;1487;51.470;6.938;2023-06-10T11:00:00;40.00;46.70
2955;DHT22;1487;51.470;6.938;2023-06-10T11:02:34;39.80;45.50
2955;DHT22;1487;51.470;6.938;2023-06-10T11:05:06;39.10;45.10
2955;DHT22;1487;51.470;6.938;2023-06-10T11:07:34;38.20;45.30
2955;DHT22;1487;51.470;6.938;2023-06-10T11:10:03;37.60;48.50
2955;DHT22;1487;51.470;6.938;2023-06-10T11:12:50;37.70;47.40
2955;DHT22;1487;51.470;6.938;2023-06-10T11:15:22;37.30;47.20
2955;DHT22;1487;51.470;6.938;2023-06-10T11:20:59;37.40;47.20
2955;DHT22;1487;51.470;6.938;2023-06-10T11:23:34;38.20;49.50
2955;DHT22;1487;51.470;6.938;2023-06-10T11:26:16;38.60;46.10
2955;DHT22;1487;51.470;6.938;2023-06-10T11:29:06;38.20;46.10
2955;DHT22;1487;51.470;6.938;2023-06-10T11:31:39;38.10;46.50
2955;DHT22;1487;51.470;6.938;2023-06-10T11:34:07;38.10;45.50
2955;DHT22;1487;51.470;6.938;2023-06-10T11:36:36;38.00;45.80
2955;DHT22;1487;51.470;6.938;2023-06-10T11:39:06;37.80;45.80
2955;DHT22;1487;51.470;6.938;2023-06-10T11:41:34;38.00;45.80
2955;DHT22;1487;51.470;6.938;2023-06-10T11:44:02;38.30;47.20
2955;DHT22;1487;51.470;6.938;2023-06-10T11:46:31;38.90;47.20
2955;DHT22;1487;51.470;6.938;2023-06-10T11:48:58;39.60;45.10
2955;DHT22;1487;51.470;6.938;2023-06-10T11:51:28;39.90;46.50
2955;DHT22;1487;51.470;6.938;2023-06-10T11:53:55;40.30;45.10
2955;DHT22;1487;51.470;6.938;2023-06-10T11:56:22;40.40;45.10
2955;DHT22;1487;51.470;6.938;2023-06-10T11:58:53;40.60;46.30
2955;DHT22;1487;51.470;6.938;2023-06-10T12:01:21;40.90;45.50
2955;DHT22;1487;51.470;6.938;2023-06-10T12:03:56;41.00;43.70
2955;DHT22;1487;51.470;6.938;2023-06-10T12:06:23;40.60;42.90
2955;DHT22;1487;51.470;6.938;2023-06-10T12:08:50;40.10;42.00
2955;DHT22;1487;51.470;6.938;2023-06-10T12:11:17;39.90;42.70
2955;DHT22;1487;51.470;6.938;2023-06-10T12:13:46;39.00;42.90
2955;DHT22;1487;51.470;6.938;2023-06-10T12:16:17;39.40;44.20
2955;DHT22;1487;51.470;6.938;2023-06-10T12:18:45;39.50;43.70
2955;DHT22;1487;51.470;6.938;2023-06-10T12:21:23;39.70;42.80
2955;DHT22;1487;51.470;6.938;2023-06-10T12:24:04;40.10;43.40
2955;DHT22;1487;51.470;6.938;2023-06-10T12:26:39;39.40;40.70
2955;DHT22;1487;51.470;6.938;2023-06-10T12:29:17;39.00;42.00
2955;DHT22;1487;51.470;6.938;2023-06-10T12:32:01;38.60;42.10
2955;DHT22;1487;51.470;6.938;2023-06-10T12:34:33;37.70;43.90
2955;DHT22;1487;51.470;6.938;2023-06-10T12:37:03;37.00;45.60
2955;DHT22;1487;51.470;6.938;2023-06-10T12:39:31;37.00;45.20
2955;DHT22;1487;51.470;6.938;2023-06-10T12:41:58;37.30;46.70
2955;DHT22;1487;51.470;6.938;2023-06-10T12:44:30;37.60;43.80
2955;DHT22;1487;51.470;6.938;2023-06-10T12:46:57;37.40;43.70
2955;DHT22;1487;51.470;6.938;2023-06-10T12:49:24;37.20;44.30
2955;DHT22;1487;51.470;6.938;2023-06-10T12:51:52;37.40;44.90
2955;DHT22;1487;51.470;6.938;2023-06-10T12:54:20;38.00;45.80
2955;DHT22;1487;51.470;6.938;2023-06-10T12:56:47;38.70;43.20
2955;DHT22;1487;51.470;6.938;2023-06-10T12:59:14;38.80;46.00
2955;DHT22;1487;51.470;6.938;2023-06-10T13:01:41;39.10;44.70
2955;DHT22;1487;51.470;6.938;2023-06-10T13:04:08;39.00;45.80
2955;DHT22;1487;51.470;6.938;2023-06-10T13:06:35;39.30;43.90
2955;DHT22;1487;51.470;6.938;2023-06-10T13:09:05;39.20;42.50
2955;DHT22;1487;51.470;6.938;2023-06-10T13:11:34;39.30;43.20
2955;DHT22;1487;51.470;6.938;2023-06-10T13:14:02;39.10;43.60
2955;DHT22;1487;51.470;6.938;2023-06-10T13:16:30;39.30;44.20
2955;DHT22;1487;51.470;6.938;2023-06-10T13:18:58;39.70;43.90
2955;DHT22;1487;51.470;6.938;2023-06-10T13:21:26;40.10;43.60
2955;DHT22;1487;51.470;6.938;2023-06-10T13:23:52;39.60;42.50
2955;DHT22;1487;51.470;6.938;2023-06-10T13:26:19;38.80;42.60
2955;DHT22;1487;51.470;6.938;2023-06-10T13:28:49;38.90;44.90
2955;DHT22;1487;51.470;6.938;2023-06-10T13:31:15;38.80;43.10
2955;DHT22;1487;51.470;6.938;2023-06-10T13:33:42;39.00;44.00
2955;DHT22;1487;51.470;6.938;2023-06-10T13:36:10;39.40;44.00
2955;DHT22;1487;51.470;6.938;2023-06-10T13:38:37;39.50;42.60
2955;DHT22;1487;51.470;6.938;2023-06-10T13:41:04;39.50;42.10
2955;DHT22;1487;51.470;6.938;2023-06-10T13:43:32;39.40;43.30
2955;DHT22;1487;51.470;6.938;2023-06-10T13:46:00;38.90;42.90
2955;DHT22;1487;51.470;6.938;2023-06-10T13:48:27;37.80;42.80
2955;DHT22;1487;51.470;6.938;2023-06-10T13:50:54;37.50;43.60
2955;DHT22;1487;51.470;6.938;2023-06-10T13:53:20;37.10;44.20
2955;DHT22;1487;51.470;6.938;2023-06-10T13:55:47;36.90;45.10
2955;DHT22;1487;51.470;6.938;2023-06-10T13:58:14;37.40;45.50
2955;DHT22;1487;51.470;6.938;2023-06-10T14:00:41;38.10;46.40
2955;DHT22;1487;51.470;6.938;2023-06-10T14:03:09;38.20;44.60
2955;DHT22;1487;51.470;6.938;2023-06-10T14:05:36;37.70;43.10
2955;DHT22;1487;51.470;6.938;2023-06-10T14:08:03;37.10;45.10
2955;DHT22;1487;51.470;6.938;2023-06-10T14:10:30;37.10;46.20
2955;DHT22;1487;51.470;6.938;2023-06-10T14:12:57;37.20;43.50
2955;DHT22;1487;51.470;6.938;2023-06-10T14:15:24;36.70;43.60
2955;DHT22;1487;51.470;6.938;2023-06-10T14:17:51;36.60;44.50
2955;DHT22;1487;51.470;6.938;2023-06-10T14:20:19;36.70;43.80
2955;DHT22;1487;51.470;6.938;2023-06-10T14:22:46;36.70;44.30
2955;DHT22;1487;51.470;6.938;2023-06-10T14:25:13;36.90;45.10
2955;DHT22;1487;51.470;6.938;2023-06-10T14:27:40;36.90;44.20
2955;DHT22;1487;51.470;6.938;2023-06-10T14:30:07;36.20;44.40
2955;DHT22;1487;51.470;6.938;2023-06-10T14:32:34;35.80;44.20
2955;DHT22;1487;51.470;6.938;2023-06-10T14:35:01;35.90;45.50
2955;DHT22;1487;51.470;6.938;2023-06-10T14:37:30;36.20;47.90
2955;DHT22;1487;51.470;6.938;2023-06-10T14:39:56;36.60;46.00
2955;DHT22;1487;51.470;6.938;2023-06-10T14:42:23;36.50;45.60
2955;DHT22;1487;51.470;6.938;2023-06-10T14:44:50;36.40;44.70
2955;DHT22;1487;51.470;6.938;2023-06-10T14:47:17;36.80;45.80
2955;DHT22;1487;51.470;6.938;2023-06-10T14:49:44;36.90;44.60
2955;DHT22;1487;51.470;6.938;2023-06-10T14:52:11;36.40;44.60
2955;DHT22;1487;51.470;6.938;2023-06-10T14:54:39;36.30;45.30
2955;DHT22;1487;51.470;6.938;2023-06-10T14:57:06;35.70;45.60
2955;DHT22;1487;51.470;6.938;2023-06-10T14:59:33;35.10;45.80
2955;DHT22;1487;51.470;6.938;2023-06-10T15:02:00;34.60;46.00
2955;DHT22;1487;51.470;6.938;2023-06-10T15:04:27;34.40;47.30
2955;DHT22;1487;51.470;6.938;2023-06-10T15:06:54;35.00;47.80
2955;DHT22;1487;51.470;6.938;2023-06-10T15:09:21;35.20;46.00
2955;DHT22;1487;51.470;6.938;2023-06-10T15:11:49;34.90;46.10
2955;DHT22;1487;51.470;6.938;2023-06-10T15:14:16;34.40;46.70
2955;DHT22;1487;51.470;6.938;2023-06-10T15:16:43;34.10;46.80
2955;DHT22;1487;51.470;6.938;2023-06-10T15:19:10;34.20;47.60
2955;DHT22;1487;51.470;6.938;2023-06-10T15:21:37;34.10;46.90
2955;DHT22;1487;51.470;6.938;2023-06-10T15:24:04;34.20;47.20
2955;DHT22;1487;51.470;6.938;2023-06-10T15:26:31;34.60;48.50
2955;DHT22;1487;51.470;6.938;2023-06-10T15:28:59;35.00;48.70
2955;DHT22;1487;51.470;6.938;2023-06-10T15:31:29;35.40;47.70
2955;DHT22;1487;51.470;6.938;2023-06-10T15:33:57;35.40;46.40
2955;DHT22;1487;51.470;6.938;2023-06-10T15:36:24;35.40;46.80
2955;DHT22;1487;51.470;6.938;2023-06-10T15:38:51;35.40;46.80
2955;DHT22;1487;51.470;6.938;2023-06-10T15:41:18;34.90;46.20
2955;DHT22;1487;51.470;6.938;2023-06-10T15:43:44;34.70;46.90
2955;DHT22;1487;51.470;6.938;2023-06-10T15:46:13;34.30;46.60
2955;DHT22;1487;51.470;6.938;2023-06-10T15:48:40;34.00;47.40
2955;DHT22;1487;51.470;6.938;2023-06-10T15:51:07;34.20;48.50
2955;DHT22;1487;51.470;6.938;2023-06-10T15:53:34;34.30;47.90
2955;DHT22;1487;51.470;6.938;2023-06-10T15:56:01;33.80;47.10
2955;DHT22;1487;51.470;6.938;2023-06-10T15:58:28;33.30;47.70
2955;DHT22;1487;51.470;6.938;2023-06-10T16:00:55;33.00;48.20
2955;DHT22;1487;51.470;6.938;2023-06-10T16:03:23;32.80;49.20
2955;DHT22;1487;51.470;6.938;2023-06-10T16:05:50;32.60;49.00
2955;DHT22;1487;51.470;6.938;2023-06-10T16:08:17;32.40;49.70
2955;DHT22;1487;51.470;6.938;2023-06-10T16:10:44;32.40;49.40